IE-0018 weather

Abbeyfeale Airfield
Abbeyfeale, County Kerry, Ireland

Public forecast

Using degrees Celsius for public forecast. Weather courtesy of forecast.io.

Closest aviation weather report (METAR) to Abbeyfeale Airfield

Closest report is Kerry Airport, 14.6 nm (27.1 km) SSW. Retrieved 2020/07/15 07:30 UTC (0 seconds ago):

EIKY 150730Z 30007KT 250V340 1900 -RA BKN010 14/14 Q1020

Closest aviation forecast (TAF) to Abbeyfeale Airfield

Closest forecast is Shannon Airport, 23.8 nm (44.0 km) NE. Retrieved 2020/07/15 06:11 UTC (1 hour ago):

TAF EINN 150500Z 1506/1606 28013KT 9999 BKN016 TEMPO 1506/1606 5000 -DZ BKN008 PROB40 TEMPO 1522/1606 3000 BR BKN004 BECMG 1604/1606 25008KT